Weather Models
Both GFS & NAM
00z 06z 12z 18z
24hr Precip
00z 06z 12z 18z
36hr Simulated radar
00z 06z 12z 18z
SKEWT Soundings
00z 12z
Current Conditions (Updated 12:45pm on 2/23/20)
Temperature
 55°
0.65
56°  
33°  
0
10
20
30
40
50
60
70
80
90
100
Dew Point
14°
27°  
12°  
-20
-10
0
10
20
30
40
50
60
70
80
Wind Chill
53°
56°  
29°  
-20
-10
0
10
20
30
40
50
60
70
80
Wind Chill
Humidity
20%
59% 
20% 
0
10
20
30
40
50
60
70
80
90
100
Barometer
30.22
   Steady
30.28  
30.22  
28.00
28.30
28.60
28.90
29.20
29.50
29.80
30.10
30.40
30.70
31.00
Temperature
Dew Point
Humidity
Pressure
Wind
7mph
SSW
Daily Rain
.00
.05
.10
.15
.20
.25
.30
.35
.40
.45
.50
Rain Today
 0.00" 
Month Rain
0.00
0.20
0.40
0.60
0.80
1.00
1.20
1.40
1.60
1.80
2.00
Month Rain
 1.82" 
Year Rain
0.00
0.50
1.00
1.50
2.00
2.50
3.00
3.50
4.00
4.50
5.00
Year Rain
 4.46" 
Sun & Moon Data
Sunrise 6:41am
Sunset 5:43pm
Moonrise 7:05am
Moonset 5:50pm
Moon % 0%
Other Rain Data
Past Hour 0.00 Past 24 Hours 0.00
Past 3 Hours 0.00 Past 7 Days 0.00
Past 6 Hours 0.00
Cloud Height
10373


Current Front Map
Current Satellite map
7 Day Forecast
NWS Forecast for Philadelphia PA
National Weather Service Forecast for: Philadelphia PA
Issued by: National Weather Service Philadelphia, PA
Updated: 11:29 am EST Feb 23, 2020

Philadelphia
 
This
Afternoon
This Afternoon: Sunny, with a high near 56. Southwest wind 5 to 10 mph.
Sunny

Tonight

Tonight: Mostly clear, with a low around 33. South wind around 5 mph becoming calm  in the evening.
Mostly Clear

Monday

Monday: Increasing clouds, with a high near 58. Calm wind becoming southwest around 5 mph in the afternoon.
Increasing
Clouds
Monday
Night
Monday Night: A chance of rain after 1am.  Cloudy, with a low around 42. South wind around 5 mph becoming calm  after midnight.  Chance of precipitation is 50%. New precipitation amounts of less than a tenth of an inch possible.
Cloudy then
Chance Rain
Tuesday

Tuesday: Rain likely, mainly before 1pm.  Cloudy, with a high near 51. Calm wind becoming east around 5 mph in the morning.  Chance of precipitation is 60%. New precipitation amounts between a tenth and quarter of an inch possible.
Rain Likely

Tuesday
Night
Tuesday Night: A slight chance of rain.  Mostly cloudy, with a low around 45. Chance of precipitation is 20%.
Slight Chance
Rain
Wednesday

Wednesday: Rain likely, mainly after 1pm.  Cloudy, with a high near 55. Chance of precipitation is 70%.
Chance Rain
then Rain
Likely
Wednesday
Night
Wednesday Night: Rain before 1am, then a chance of drizzle after 1am.  Low around 40. Chance of precipitation is 80%.
Rain

Thursday

Thursday: Mostly sunny, with a high near 46.
Mostly Sunny

Hi 56 °F Lo 33 °F Hi 58 °F Lo 42 °F Hi 51 °F Lo 45 °F Hi 55 °F Lo 40 °F Hi 46 °F

 

This Afternoon
 
Sunny, with a high near 56. Southwest wind 5 to 10 mph.
Tonight
 
Mostly clear, with a low around 33. South wind around 5 mph becoming calm in the evening.
Monday
 
Increasing clouds, with a high near 58. Calm wind becoming southwest around 5 mph in the afternoon.
Monday Night
 
A chance of rain after 1am. Cloudy, with a low around 42. South wind around 5 mph becoming calm after midnight. Chance of precipitation is 50%. New precipitation amounts of less than a tenth of an inch possible.
Tuesday
 
Rain likely, mainly before 1pm. Cloudy, with a high near 51. Calm wind becoming east around 5 mph in the morning. Chance of precipitation is 60%. New precipitation amounts between a tenth and quarter of an inch possible.
Tuesday Night
 
A slight chance of rain. Mostly cloudy, with a low around 45. Chance of precipitation is 20%.
Wednesday
 
Rain likely, mainly after 1pm. Cloudy, with a high near 55. Chance of precipitation is 70%.
Wednesday Night
 
Rain before 1am, then a chance of drizzle after 1am. Low around 40. Chance of precipitation is 80%.
Thursday
 
Mostly sunny, with a high near 46.
Thursday Night
 
Partly cloudy, with a low around 29.
Friday
 
Mostly sunny, with a high near 39.
Friday Night
 
Mostly cloudy, with a low around 26.
Saturday
 
Mostly sunny, with a high near 40.

 

Forecast from NOAA-NWS for Philadelphia PA.

Area Weather Current Conditions
Nearby METAR Reports

KPHL - Philadelphia, Pennsylvania
Updated: Sun, 23-Feb-2020 11:54am EST
Clear
Clear
 Wind from WSW
Wind: WSW 6 mph , 9 km/h
Temperature: 50°F , 10°C
Wind Chill: 48°F , 9°C
Dew Point: 10°F , -12°C
Humidity: 20%
Barometer: 30.22 inHg , 1023.4 hPa
Clouds: Clear
Visibility: 10 miles , 16 km
2020/02/23 16:54 KPHL 231654Z 24005KT 10SM CLR 10/M12 A3022 RMK AO2 SLP234 T01001117
KMPO - Mt. Pocono, Pennsylvania
Updated: Sun, 23-Feb-2020 11:53am EST
Clear
Clear
 Wind from WSW
Wind: WSW 10 mph , 17 km/h
Temperature: 43°F , 6°C
Wind Chill: 37°F , 3°C
Dew Point: 10°F , -12°C
Humidity: 26%
Barometer: 30.12 inHg , 1020 hPa
Clouds: Clear
Visibility: 10 miles , 16 km
2020/02/23 16:53 KMPO 231653Z AUTO 25009KT 10SM CLR 06/M12 A3012 RMK AO2 SLP215 T00611122
 
KACY - Atlantic City, New Jersey
Updated: Sun, 23-Feb-2020 11:54am EST
Clear
Clear
 Wind from W
Wind: W 8 mph , 13 km/h
Temperature: 54°F , 12°C
Dew Point: 10°F , -12°C
Humidity: 18%
Barometer: 30.22 inHg , 1023.4 hPa
Clouds: Clear
Visibility: 10 miles , 16 km
2020/02/23 16:54 KACY 231654Z 26007KT 10SM CLR 12/M12 A3022 RMK AO2 SLP234 T01221122 $
KMIV - Millville, New Jersey
Updated: Sun, 23-Feb-2020 11:54am EST
Clear
Clear
 Wind from varies
Wind: varies 3 mph , 6 km/h
Temperature: 54°F , 12°C
Dew Point: 9°F , -13°C
Humidity: 16%
Barometer: 30.23 inHg , 1023.7 hPa
Clouds: Clear
Visibility: 10 miles , 16 km
2020/02/23 16:54 KMIV 231654Z AUTO VRB03KT 10SM CLR 12/M13 A3023 RMK AO2 SLP236 T01171128
 
KWWD - Wildwood, New Jersey
Updated: Sun, 23-Feb-2020 11:56am EST
Clear
Clear
 Wind from SSE
Wind: SSE 8 mph , 13 km/h
Temperature: 54°F , 12°C
Dew Point: 16°F , -9°C
Humidity: 22%
Barometer: 30.24 inHg , 1024 hPa
Clouds: Clear
Visibility: 10 miles , 16 km
2020/02/23 16:56 KWWD 231656Z AUTO 15007KT 130V190 10SM CLR 12/M09 A3024 RMK AO2 SLP244 T01171094
KDOV - Dover Afb, Delaware
Updated: Sun, 23-Feb-2020 11:56am EST
Clear
Clear
 Wind from calm
Wind: Calm
Temperature: 54°F , 12°C
Dew Point: 12°F , -11°C
Humidity: 19%
Barometer: 30.23 inHg , 1023.7 hPa
Clouds: Clear
Visibility: 10 miles , 16 km
2020/02/23 16:56 KDOV 231656Z AUTO 00000KT 10SM CLR 12/M11 A3023 RMK AO2 SLP240 T01181111 $
Severe Weather Map